KMMK

Meriden Markham Municipal Airport

Meriden, Connecticut, USA
METAR KMMK 231053Z AUTO 00000KT 7SM OVC003 13/13 A2990 RMK AO2 SLP123 T01330133
Observed Flight Rules
May-23 @ 10:53 UTC (14 minutes ago) Instrument Flight Rules
Visibility Clouds
7 miles
  • Overcast at 300' AGL
Temperatures Readings
Current 13°C / 55°F
Dewpoint 13°C / 55°F
Humidity 100%
Altimeter 29.9" Hg
Pressure 1012.3 hPa
Elevation 31
METAR KMMK 231053Z AUTO 00000KT 7SM OVC003 13/13 A2990 RMK AO2 SLP123 T01330133
Observed Flight Rules
May-23 @ 10:53 UTC
(14 minutes ago)
LIFR
Clouds
  • Overcast at 300' AGL
Temperature Dewpoint
13°C / 55°F 13°C / 55°F
Humidity Altimeter Pressure
100% 29.9" Hg 1012.3 hPa